Saltar al contingut principal

Dades de l'estació automàtica Seròs

Selector estació i data
?
?

Resum diari

22:30 TU
Dades diàries de l'estació meteorològica
Temperatura mitjana 23.4 °C
Temperatura màxima 31.5 °C 15:50 TU
Temperatura mínima 13.6 °C 4:52 TU
Humitat relativa mitjana 60%
Precipitació acumulada 0.0 mm
Ratxa màxima del vent (2 m) 30.6 km/h - 115º 18:37 TU
Irradiació solar global 30.6 MJ/m2

El tram horari està expressat en Temps Universal (TU). Cal sumar una hora en horari d'hivern i dues en horari d'estiu per passar a l'hora oficial.

Seròs

Metadades estació meteorològica
Municipi Seròs
Comarca Segrià
Altitud 89 m
Data alta 15.12.2011
Estat actual Operativa
Dades de període
Període
TU
TM
°C
TX
°C
TN
°C
HRM
%
PPT
mm
VVM (2 m)
km/h
DVM (2 m)
graus
VVX (2 m)
km/h
RS
W/m2
00:00 - 00:30 20.4 20.5 20.2 73 0.0 7.2 164 14.4 0
00:30 - 01:00 19.8 20.2 19.5 72 0.0 4.3 170 9.7 0
01:00 - 01:30 19.3 19.5 18.7 71 0.0 2.5 180 8.6 0
01:30 - 02:00 17.1 18.7 15.8 82 0.0 1.4 336 4.0 0
02:00 - 02:30 15.4 15.8 15.2 90 0.0 1.4 336 3.2 0
02:30 - 03:00 15.0 15.2 14.7 91 0.0 0.7 355 2.5 0
03:00 - 03:30 14.6 14.8 14.4 93 0.0 0.4 355 2.5 0
03:30 - 04:00 14.1 14.6 14.0 94 0.0 0.4 343 1.8 0
04:00 - 04:30 14.0 14.2 13.9 95 0.0 0.4 358 1.8 0
04:30 - 05:00 13.7 14.0 13.6 95 0.0 0.4 345 2.5 11
05:00 - 05:30 15.0 16.8 14.0 94 0.0 0.0 0 0.0 95
05:30 - 06:00 17.9 19.1 16.7 80 0.0 0.7 244 4.3 184
06:00 - 06:30 19.5 20.0 19.1 73 0.0 4.3 225 11.9 248
06:30 - 07:00 20.2 20.5 20.0 68 0.0 6.8 221 14.0 343
07:00 - 07:30 20.9 21.2 20.6 65 0.0 6.5 214 13.0 439
07:30 - 08:00 21.7 22.0 21.3 61 0.0 6.1 213 14.8 529
08:00 - 08:30 22.4 22.9 21.9 58 0.0 5.8 237 13.0 615
08:30 - 09:00 23.1 23.3 22.9 55 0.0 4.7 250 11.5 697
09:00 - 09:30 23.7 24.1 23.2 52 0.0 4.3 245 12.2 771
09:30 - 10:00 24.4 24.7 23.9 50 0.0 3.6 234 13.7 827
10:00 - 10:30 25.0 25.5 24.5 47 0.0 4.3 199 13.3 885
10:30 - 11:00 26.2 26.7 25.5 45 0.0 3.2 246 8.6 924
11:00 - 11:30 26.8 27.1 26.2 41 0.0 4.3 157 12.2 954
11:30 - 12:00 27.1 27.6 26.5 41 0.0 5.0 148 14.0 971
12:00 - 12:30 27.8 28.2 27.4 40 0.0 5.4 112 14.0 973
12:30 - 13:00 28.5 29.2 27.9 39 0.0 2.9 312 7.2 959
13:00 - 13:30 28.9 29.6 28.5 38 0.0 4.0 43 8.3 933
13:30 - 14:00 29.7 30.3 29.3 37 0.0 2.9 3 8.3 893
14:00 - 14:30 30.2 30.4 29.7 37 0.0 3.6 65 12.6 840
14:30 - 15:00 30.5 30.8 30.2 37 0.0 2.9 39 7.6 777
15:00 - 15:30 30.7 31.0 30.4 36 0.0 2.5 354 9.4 703
15:30 - 16:00 30.9 31.5 30.6 36 0.0 2.9 354 8.6 621
16:00 - 16:30 30.8 31.2 30.6 38 0.0 3.2 34 10.1 534
16:30 - 17:00 30.1 31.1 29.5 40 0.0 10.1 142 19.8 442
17:00 - 17:30 29.1 29.4 28.7 43 0.0 12.2 149 22.3 345
17:30 - 18:00 28.4 28.8 27.9 47 0.0 13.7 146 25.6 249
18:00 - 18:30 27.4 27.8 26.9 51 0.0 14.4 148 27.7 160
18:30 - 19:00 26.5 26.9 26.2 54 0.0 13.3 144 30.6 77
19:00 - 19:30 25.8 26.2 25.4 56 0.0 14.0 148 29.5 16
19:30 - 20:00 25.1 25.4 24.7 58 0.0 12.6 144 26.3 0
20:00 - 20:30 24.5 24.7 24.1 61 0.0 13.0 147 26.6 0
20:30 - 21:00 23.8 24.1 23.4 65 0.0 11.2 142 27.0 0
21:00 - 21:30 23.2 23.3 22.9 68 0.0 11.2 137 23.4 0
21:30 - 22:00 22.8 22.9 22.6 69 0.0 12.2 137 27.4 0
22:00 - 22:30 22.3 22.6 22.0 71 0.0 5.8 117 18.0 0
22:30 - 23:00 21.6 22.1 21.2 73 0.0 2.9 51 7.9 0
23:00 - 23:30 (s/d) (s/d) (s/d) (s/d) (s/d) (s/d) (s/d) (s/d) (s/d)

Les dades en taronja només han passat un control de qualitat automàtic. Resta pendent la seva validació definitiva.